sensor_id;sensor_type;location;lat;lon;timestamp;pressure;altitude;pressure_sealevel;temperature;humidity
58967;BME280;44744;51.894;5.080;2022-12-24T00:00:59;100700.54;;;8.69;90.08
58967;BME280;44744;51.894;5.080;2022-12-24T00:02:03;100699.98;;;8.69;89.91
58967;BME280;44744;51.894;5.080;2022-12-24T00:03:03;100701.27;;;8.68;89.92
58967;BME280;44744;51.894;5.080;2022-12-24T00:04:03;100700.59;;;8.68;89.92
58967;BME280;44744;51.894;5.080;2022-12-24T00:05:03;100704.68;;;8.67;90.00
58967;BME280;44744;51.894;5.080;2022-12-24T00:06:07;100702.23;;;8.67;90.00
58967;BME280;44744;51.894;5.080;2022-12-24T00:07:07;100709.88;;;8.65;90.05
58967;BME280;44744;51.894;5.080;2022-12-24T00:08:07;100708.31;;;8.65;90.08
58967;BME280;44744;51.894;5.080;2022-12-24T00:09:08;100710.34;;;8.63;90.10
58967;BME280;44744;51.894;5.080;2022-12-24T00:10:08;100711.95;;;8.62;89.99
58967;BME280;44744;51.894;5.080;2022-12-24T00:11:09;100710.60;;;8.61;89.98
58967;BME280;44744;51.894;5.080;2022-12-24T00:12:09;100712.73;;;8.61;90.06
58967;BME280;44744;51.894;5.080;2022-12-24T00:13:10;100714.38;;;8.60;90.01
58967;BME280;44744;51.894;5.080;2022-12-24T00:14:10;100714.95;;;8.59;90.06
58967;BME280;44744;51.894;5.080;2022-12-24T00:15:10;100714.30;;;8.58;90.05
58967;BME280;44744;51.894;5.080;2022-12-24T00:16:10;100714.31;;;8.58;90.11
58967;BME280;44744;51.894;5.080;2022-12-24T00:17:14;100716.48;;;8.57;90.05
58967;BME280;44744;51.894;5.080;2022-12-24T00:18:14;100715.11;;;8.56;89.98
58967;BME280;44744;51.894;5.080;2022-12-24T00:19:14;100718.14;;;8.55;89.88
58967;BME280;44744;51.894;5.080;2022-12-24T00:20:14;100719.79;;;8.53;89.88
58967;BME280;44744;51.894;5.080;2022-12-24T00:21:15;100722.27;;;8.53;89.82
58967;BME280;44744;51.894;5.080;2022-12-24T00:22:15;100721.80;;;8.52;89.85
58967;BME280;44744;51.894;5.080;2022-12-24T00:23:18;100720.25;;;8.51;89.77
58967;BME280;44744;51.894;5.080;2022-12-24T00:24:18;100726.29;;;8.51;89.78
58967;BME280;44744;51.894;5.080;2022-12-24T00:25:18;100728.80;;;8.49;89.89
58967;BME280;44744;51.894;5.080;2022-12-24T00:26:18;100730.94;;;8.49;89.90
58967;BME280;44744;51.894;5.080;2022-12-24T00:27:18;100729.77;;;8.48;89.89
58967;BME280;44744;51.894;5.080;2022-12-24T00:28:21;100734.75;;;8.47;89.87
58967;BME280;44744;51.894;5.080;2022-12-24T00:29:21;100737.80;;;8.46;89.95
58967;BME280;44744;51.894;5.080;2022-12-24T00:30:22;100735.18;;;8.45;89.99
58967;BME280;44744;51.894;5.080;2022-12-24T00:31:22;100736.96;;;8.44;89.89
58967;BME280;44744;51.894;5.080;2022-12-24T00:32:22;100737.71;;;8.43;89.99
58967;BME280;44744;51.894;5.080;2022-12-24T00:33:22;100738.27;;;8.42;89.96
58967;BME280;44744;51.894;5.080;2022-12-24T00:34:23;100740.23;;;8.42;89.99
58967;BME280;44744;51.894;5.080;2022-12-24T00:35:23;100741.31;;;8.42;90.04
58967;BME280;44744;51.894;5.080;2022-12-24T00:36:24;100737.66;;;8.41;90.14
58967;BME280;44744;51.894;5.080;2022-12-24T00:37:24;100744.73;;;8.40;90.08
58967;BME280;44744;51.894;5.080;2022-12-24T00:38:24;100744.40;;;8.40;89.99
58967;BME280;44744;51.894;5.080;2022-12-24T00:39:26;100744.95;;;8.39;90.08
58967;BME280;44744;51.894;5.080;2022-12-24T00:40:26;100741.52;;;8.37;90.07
58967;BME280;44744;51.894;5.080;2022-12-24T00:41:26;100744.19;;;8.36;90.11
58967;BME280;44744;51.894;5.080;2022-12-24T00:42:26;100745.65;;;8.35;90.09
58967;BME280;44744;51.894;5.080;2022-12-24T00:43:27;100746.19;;;8.35;90.04
58967;BME280;44744;51.894;5.080;2022-12-24T00:44:27;100753.43;;;8.35;90.01
58967;BME280;44744;51.894;5.080;2022-12-24T00:45:27;100748.67;;;8.35;90.07
58967;BME280;44744;51.894;5.080;2022-12-24T00:46:29;100756.42;;;8.35;90.17
58967;BME280;44744;51.894;5.080;2022-12-24T00:47:29;100758.23;;;8.34;90.03
58967;BME280;44744;51.894;5.080;2022-12-24T00:48:29;100759.49;;;8.33;90.03
58967;BME280;44744;51.894;5.080;2022-12-24T00:49:30;100761.64;;;8.32;89.98
58967;BME280;44744;51.894;5.080;2022-12-24T00:50:30;100762.57;;;8.31;90.18
58967;BME280;44744;51.894;5.080;2022-12-24T00:51:30;100761.19;;;8.31;90.16
58967;BME280;44744;51.894;5.080;2022-12-24T00:52:32;100764.75;;;8.30;90.13
58967;BME280;44744;51.894;5.080;2022-12-24T00:53:32;100766.49;;;8.30;90.09
58967;BME280;44744;51.894;5.080;2022-12-24T00:54:32;100770.11;;;8.28;90.04
58967;BME280;44744;51.894;5.080;2022-12-24T00:55:32;100771.23;;;8.27;90.07
58967;BME280;44744;51.894;5.080;2022-12-24T00:56:33;100768.98;;;8.26;90.14
58967;BME280;44744;51.894;5.080;2022-12-24T00:57:33;100771.99;;;8.26;89.99
58967;BME280;44744;51.894;5.080;2022-12-24T00:58:33;100772.05;;;8.25;90.07
58967;BME280;44744;51.894;5.080;2022-12-24T00:59:34;100776.83;;;8.24;90.08
58967;BME280;44744;51.894;5.080;2022-12-24T01:00:34;100780.02;;;8.24;90.06
58967;BME280;44744;51.894;5.080;2022-12-24T01:01:34;100782.52;;;8.23;89.95
58967;BME280;44744;51.894;5.080;2022-12-24T01:02:34;100785.39;;;8.22;89.98
58967;BME280;44744;51.894;5.080;2022-12-24T01:03:35;100783.33;;;8.21;90.00
58967;BME280;44744;51.894;5.080;2022-12-24T01:04:35;100782.65;;;8.20;90.15
58967;BME280;44744;51.894;5.080;2022-12-24T01:05:35;100780.94;;;8.19;90.04
58967;BME280;44744;51.894;5.080;2022-12-24T01:06:35;100785.18;;;8.19;90.19
58967;BME280;44744;51.894;5.080;2022-12-24T01:07:36;100790.29;;;8.19;90.19
58967;BME280;44744;51.894;5.080;2022-12-24T01:08:37;100790.86;;;8.18;90.10
58967;BME280;44744;51.894;5.080;2022-12-24T01:09:40;100793.17;;;8.17;90.06
58967;BME280;44744;51.894;5.080;2022-12-24T01:10:41;100791.98;;;8.16;90.07
58967;BME280;44744;51.894;5.080;2022-12-24T01:11:41;100793.23;;;8.16;90.08
58967;BME280;44744;51.894;5.080;2022-12-24T01:12:49;100791.30;;;8.15;90.03
58967;BME280;44744;51.894;5.080;2022-12-24T01:13:49;100788.54;;;8.14;90.11
58967;BME280;44744;51.894;5.080;2022-12-24T01:14:49;100789.09;;;8.14;90.17
58967;BME280;44744;51.894;5.080;2022-12-24T01:21:26;100805.77;;;8.15;90.24
58967;BME280;44744;51.894;5.080;2022-12-24T01:22:26;100807.00;;;8.15;90.35
58967;BME280;44744;51.894;5.080;2022-12-24T01:23:27;100804.70;;;8.15;90.37
58967;BME280;44744;51.894;5.080;2022-12-24T01:24:28;100806.27;;;8.15;90.39
58967;BME280;44744;51.894;5.080;2022-12-24T01:25:28;100808.58;;;8.15;90.22
58967;BME280;44744;51.894;5.080;2022-12-24T01:26:31;100808.61;;;8.15;90.36
58967;BME280;44744;51.894;5.080;2022-12-24T01:27:31;100807.21;;;8.15;90.34
58967;BME280;44744;51.894;5.080;2022-12-24T01:28:32;100809.66;;;8.15;90.30
58967;BME280;44744;51.894;5.080;2022-12-24T01:29:33;100809.49;;;8.15;90.35
58967;BME280;44744;51.894;5.080;2022-12-24T01:30:33;100811.80;;;8.14;90.28
58967;BME280;44744;51.894;5.080;2022-12-24T01:31:34;100815.39;;;8.13;90.36
58967;BME280;44744;51.894;5.080;2022-12-24T01:32:36;100811.14;;;8.13;90.44
58967;BME280;44744;51.894;5.080;2022-12-24T01:33:36;100810.25;;;8.13;90.52
58967;BME280;44744;51.894;5.080;2022-12-24T01:34:37;100813.60;;;8.13;90.46
58967;BME280;44744;51.894;5.080;2022-12-24T01:35:40;100814.65;;;8.14;90.45
58967;BME280;44744;51.894;5.080;2022-12-24T01:36:41;100816.05;;;8.14;90.41
58967;BME280;44744;51.894;5.080;2022-12-24T01:37:41;100812.52;;;8.14;90.36
58967;BME280;44744;51.894;5.080;2022-12-24T01:38:42;100815.34;;;8.14;90.36
58967;BME280;44744;51.894;5.080;2022-12-24T01:39:42;100814.13;;;8.13;90.33
58967;BME280;44744;51.894;5.080;2022-12-24T01:40:42;100820.70;;;8.12;90.30
58967;BME280;44744;51.894;5.080;2022-12-24T01:41:42;100825.64;;;8.12;90.20
58967;BME280;44744;51.894;5.080;2022-12-24T01:42:48;100825.36;;;8.10;90.32
58967;BME280;44744;51.894;5.080;2022-12-24T01:43:48;100826.45;;;8.10;90.19
58967;BME280;44744;51.894;5.080;2022-12-24T01:44:49;100829.16;;;8.09;90.19
58967;BME280;44744;51.894;5.080;2022-12-24T01:45:51;100828.66;;;8.08;90.13
58967;BME280;44744;51.894;5.080;2022-12-24T01:46:54;100831.19;;;8.06;89.92
58967;BME280;44744;51.894;5.080;2022-12-24T01:47:55;100834.27;;;8.04;90.03
58967;BME280;44744;51.894;5.080;2022-12-24T01:48:57;100838.02;;;8.03;90.00
58967;BME280;44744;51.894;5.080;2022-12-24T01:50:00;100832.96;;;8.01;89.96
58967;BME280;44744;51.894;5.080;2022-12-24T01:52:26;100836.45;;;7.99;90.09
58967;BME280;44744;51.894;5.080;2022-12-24T01:53:27;100833.67;;;7.98;89.89
58967;BME280;44744;51.894;5.080;2022-12-24T01:54:29;100832.71;;;7.96;89.83
58967;BME280;44744;51.894;5.080;2022-12-24T01:55:30;100831.54;;;7.94;89.88
58967;BME280;44744;51.894;5.080;2022-12-24T01:56:31;100831.08;;;7.93;90.01
58967;BME280;44744;51.894;5.080;2022-12-24T01:57:45;100832.30;;;7.93;90.08
58967;BME280;44744;51.894;5.080;2022-12-24T01:58:50;100831.97;;;7.93;89.88
58967;BME280;44744;51.894;5.080;2022-12-24T01:59:54;100836.42;;;7.91;89.77
58967;BME280;44744;51.894;5.080;2022-12-24T02:00:54;100838.29;;;7.89;89.76
58967;BME280;44744;51.894;5.080;2022-12-24T02:01:55;100839.08;;;7.87;89.72
58967;BME280;44744;51.894;5.080;2022-12-24T02:02:55;100841.77;;;7.86;89.78
58967;BME280;44744;51.894;5.080;2022-12-24T02:03:55;100840.56;;;7.85;89.69
58967;BME280;44744;51.894;5.080;2022-12-24T02:05:04;100846.42;;;7.84;89.64
58967;BME280;44744;51.894;5.080;2022-12-24T02:06:06;100848.95;;;7.82;89.68
58967;BME280;44744;51.894;5.080;2022-12-24T02:07:07;100849.00;;;7.82;89.56
58967;BME280;44744;51.894;5.080;2022-12-24T02:08:07;100853.25;;;7.81;89.60
58967;BME280;44744;51.894;5.080;2022-12-24T02:09:07;100856.81;;;7.80;89.62
58967;BME280;44744;51.894;5.080;2022-12-24T02:10:10;100860.05;;;7.78;89.72
58967;BME280;44744;51.894;5.080;2022-12-24T02:11:14;100863.27;;;7.77;89.60
58967;BME280;44744;51.894;5.080;2022-12-24T02:12:15;100864.38;;;7.76;89.58
58967;BME280;44744;51.894;5.080;2022-12-24T02:13:17;100864.77;;;7.75;89.57
58967;BME280;44744;51.894;5.080;2022-12-24T02:14:18;100865.31;;;7.75;89.53
58967;BME280;44744;51.894;5.080;2022-12-24T02:15:18;100868.67;;;7.74;89.72
58967;BME280;44744;51.894;5.080;2022-12-24T02:17:29;100867.31;;;7.73;89.69
58967;BME280;44744;51.894;5.080;2022-12-24T02:20:30;100873.54;;;7.72;89.71
58967;BME280;44744;51.894;5.080;2022-12-24T02:24:14;100871.61;;;7.72;89.61
58967;BME280;44744;51.894;5.080;2022-12-24T02:33:48;100871.46;;;7.71;89.96
58967;BME280;44744;51.894;5.080;2022-12-24T02:34:54;100874.27;;;7.71;90.09
58967;BME280;44744;51.894;5.080;2022-12-24T02:35:58;100871.30;;;7.71;90.23
58967;BME280;44744;51.894;5.080;2022-12-24T02:37:44;100871.96;;;7.72;90.07
58967;BME280;44744;51.894;5.080;2022-12-24T02:38:29;100871.45;;;7.71;90.09
58967;BME280;44744;51.894;5.080;2022-12-24T02:39:42;100876.67;;;7.72;90.21
58967;BME280;44744;51.894;5.080;2022-12-24T02:40:51;100874.17;;;7.73;90.25
58967;BME280;44744;51.894;5.080;2022-12-24T02:41:58;100870.13;;;7.73;90.19
58967;BME280;44744;51.894;5.080;2022-12-24T02:43:00;100872.21;;;7.74;90.25
58967;BME280;44744;51.894;5.080;2022-12-24T02:44:02;100874.16;;;7.74;90.24
58967;BME280;44744;51.894;5.080;2022-12-24T02:45:15;100870.92;;;7.75;90.24
58967;BME280;44744;51.894;5.080;2022-12-24T02:46:21;100870.95;;;7.75;90.31
58967;BME280;44744;51.894;5.080;2022-12-24T02:47:23;100875.67;;;7.75;90.32
58967;BME280;44744;51.894;5.080;2022-12-24T02:48:25;100873.38;;;7.76;90.40
58967;BME280;44744;51.894;5.080;2022-12-24T02:49:26;100875.44;;;7.77;90.41
58967;BME280;44744;51.894;5.080;2022-12-24T02:50:29;100876.83;;;7.77;90.41
58967;BME280;44744;51.894;5.080;2022-12-24T02:51:29;100877.81;;;7.79;90.36
58967;BME280;44744;51.894;5.080;2022-12-24T02:52:30;100874.80;;;7.79;90.39
58967;BME280;44744;51.894;5.080;2022-12-24T02:53:31;100876.58;;;7.79;90.60
58967;BME280;44744;51.894;5.080;2022-12-24T02:54:32;100877.55;;;7.81;90.54
58967;BME280;44744;51.894;5.080;2022-12-24T02:57:03;100883.28;;;7.82;90.50
58967;BME280;44744;51.894;5.080;2022-12-24T02:58:22;100882.54;;;7.83;90.52
58967;BME280;44744;51.894;5.080;2022-12-24T03:03:29;100889.77;;;7.87;90.60
58967;BME280;44744;51.894;5.080;2022-12-24T03:04:37;100888.92;;;7.86;90.63
58967;BME280;44744;51.894;5.080;2022-12-24T03:05:47;100887.19;;;7.86;90.74
58967;BME280;44744;51.894;5.080;2022-12-24T03:06:53;100893.50;;;7.86;90.76
58967;BME280;44744;51.894;5.080;2022-12-24T03:11:43;100886.18;;;7.89;90.83
58967;BME280;44744;51.894;5.080;2022-12-24T03:12:57;100887.21;;;7.90;91.00
58967;BME280;44744;51.894;5.080;2022-12-24T03:13:58;100886.98;;;7.91;90.96
58967;BME280;44744;51.894;5.080;2022-12-24T03:14:59;100887.52;;;7.91;90.83
58967;BME280;44744;51.894;5.080;2022-12-24T03:16:00;100893.98;;;7.92;91.06
58967;BME280;44744;51.894;5.080;2022-12-24T03:17:03;100894.83;;;7.92;91.11
58967;BME280;44744;51.894;5.080;2022-12-24T03:19:42;100899.51;;;7.95;91.00
58967;BME280;44744;51.894;5.080;2022-12-24T03:22:06;100901.48;;;7.97;91.07
58967;BME280;44744;51.894;5.080;2022-12-24T03:23:28;100903.55;;;7.98;91.15
58967;BME280;44744;51.894;5.080;2022-12-24T03:25:40;100906.94;;;8.01;91.17
58967;BME280;44744;51.894;5.080;2022-12-24T03:26:43;100912.02;;;8.03;91.17
58967;BME280;44744;51.894;5.080;2022-12-24T03:28:14;100909.13;;;8.04;91.36
58967;BME280;44744;51.894;5.080;2022-12-24T03:29:13;100908.56;;;8.05;91.35
58967;BME280;44744;51.894;5.080;2022-12-24T03:30:14;100909.05;;;8.06;91.46
58967;BME280;44744;51.894;5.080;2022-12-24T03:31:17;100907.26;;;8.07;91.38
58967;BME280;44744;51.894;5.080;2022-12-24T03:32:22;100907.03;;;8.08;91.55
58967;BME280;44744;51.894;5.080;2022-12-24T03:33:22;100908.02;;;8.09;91.67
58967;BME280;44744;51.894;5.080;2022-12-24T03:34:22;100906.60;;;8.09;91.57
58967;BME280;44744;51.894;5.080;2022-12-24T03:35:23;100910.03;;;8.11;91.74
58967;BME280;44744;51.894;5.080;2022-12-24T03:36:23;100912.15;;;8.12;91.75
58967;BME280;44744;51.894;5.080;2022-12-24T03:37:23;100913.15;;;8.13;91.68
58967;BME280;44744;51.894;5.080;2022-12-24T03:38:24;100910.51;;;8.13;91.60
58967;BME280;44744;51.894;5.080;2022-12-24T03:39:24;100915.94;;;8.13;91.66
58967;BME280;44744;51.894;5.080;2022-12-24T03:40:24;100912.17;;;8.15;91.71
58967;BME280;44744;51.894;5.080;2022-12-24T03:41:24;100919.21;;;8.15;91.74
58967;BME280;44744;51.894;5.080;2022-12-24T03:42:25;100921.46;;;8.16;91.83
58967;BME280;44744;51.894;5.080;2022-12-24T03:43:25;100920.05;;;8.17;91.80
58967;BME280;44744;51.894;5.080;2022-12-24T03:44:25;100918.95;;;8.17;91.90
58967;BME280;44744;51.894;5.080;2022-12-24T03:45:27;100916.65;;;8.18;91.90
58967;BME280;44744;51.894;5.080;2022-12-24T03:46:27;100916.75;;;8.19;91.84
58967;BME280;44744;51.894;5.080;2022-12-24T03:47:27;100915.50;;;8.19;91.92
58967;BME280;44744;51.894;5.080;2022-12-24T03:48:31;100917.95;;;8.20;91.81
58967;BME280;44744;51.894;5.080;2022-12-24T03:49:32;100917.02;;;8.21;91.87
58967;BME280;44744;51.894;5.080;2022-12-24T03:50:32;100919.63;;;8.22;91.92
58967;BME280;44744;51.894;5.080;2022-12-24T03:51:32;100918.20;;;8.23;91.86
58967;BME280;44744;51.894;5.080;2022-12-24T03:52:32;100918.36;;;8.23;91.93
58967;BME280;44744;51.894;5.080;2022-12-24T03:53:32;100921.64;;;8.24;91.92
58967;BME280;44744;51.894;5.080;2022-12-24T03:54:33;100919.52;;;8.25;91.94
58967;BME280;44744;51.894;5.080;2022-12-24T03:55:33;100920.18;;;8.26;91.95
58967;BME280;44744;51.894;5.080;2022-12-24T03:56:33;100924.39;;;8.26;91.97
58967;BME280;44744;51.894;5.080;2022-12-24T03:57:33;100924.57;;;8.26;92.01
58967;BME280;44744;51.894;5.080;2022-12-24T03:58:35;100924.55;;;8.26;91.93
58967;BME280;44744;51.894;5.080;2022-12-24T03:59:36;100929.48;;;8.27;91.93
58967;BME280;44744;51.894;5.080;2022-12-24T04:00:36;100930.52;;;8.27;91.90
58967;BME280;44744;51.894;5.080;2022-12-24T04:01:36;100931.52;;;8.28;91.98
58967;BME280;44744;51.894;5.080;2022-12-24T04:02:36;100934.33;;;8.28;91.95
58967;BME280;44744;51.894;5.080;2022-12-24T04:03:45;100933.40;;;8.30;91.98
58967;BME280;44744;51.894;5.080;2022-12-24T04:04:45;100935.47;;;8.30;91.93
58967;BME280;44744;51.894;5.080;2022-12-24T04:05:46;100935.98;;;8.30;92.01
58967;BME280;44744;51.894;5.080;2022-12-24T04:06:46;100935.60;;;8.31;92.03
58967;BME280;44744;51.894;5.080;2022-12-24T04:07:46;100937.50;;;8.32;92.03
58967;BME280;44744;51.894;5.080;2022-12-24T04:08:46;100937.81;;;8.33;91.94
58967;BME280;44744;51.894;5.080;2022-12-24T04:09:47;100937.98;;;8.33;92.11
58967;BME280;44744;51.894;5.080;2022-12-24T04:10:47;100934.95;;;8.34;91.99
58967;BME280;44744;51.894;5.080;2022-12-24T04:11:47;100936.36;;;8.34;92.03
58967;BME280;44744;51.894;5.080;2022-12-24T04:12:47;100932.30;;;8.34;91.98
58967;BME280;44744;51.894;5.080;2022-12-24T04:13:58;100934.02;;;8.35;92.08
58967;BME280;44744;51.894;5.080;2022-12-24T04:14:58;100934.52;;;8.36;92.08
58967;BME280;44744;51.894;5.080;2022-12-24T04:16:02;100937.85;;;8.37;92.15
58967;BME280;44744;51.894;5.080;2022-12-24T04:17:06;100936.41;;;8.37;92.10
58967;BME280;44744;51.894;5.080;2022-12-24T04:18:06;100934.98;;;8.37;92.16
58967;BME280;44744;51.894;5.080;2022-12-24T04:19:12;100939.00;;;8.38;92.16
58967;BME280;44744;51.894;5.080;2022-12-24T04:20:12;100938.29;;;8.39;92.21
58967;BME280;44744;51.894;5.080;2022-12-24T04:21:12;100941.98;;;8.38;92.22
58967;BME280;44744;51.894;5.080;2022-12-24T04:22:12;100943.89;;;8.40;92.25
58967;BME280;44744;51.894;5.080;2022-12-24T04:23:13;100944.52;;;8.41;92.31
58967;BME280;44744;51.894;5.080;2022-12-24T04:24:13;100942.56;;;8.41;92.27
58967;BME280;44744;51.894;5.080;2022-12-24T04:25:13;100946.92;;;8.42;92.26
58967;BME280;44744;51.894;5.080;2022-12-24T04:26:13;100950.41;;;8.43;92.35
58967;BME280;44744;51.894;5.080;2022-12-24T04:27:14;100949.34;;;8.44;92.25
58967;BME280;44744;51.894;5.080;2022-12-24T04:28:14;100947.20;;;8.44;92.31
58967;BME280;44744;51.894;5.080;2022-12-24T04:29:15;100950.90;;;8.44;92.30
58967;BME280;44744;51.894;5.080;2022-12-24T04:30:15;100945.96;;;8.45;92.28
58967;BME280;44744;51.894;5.080;2022-12-24T04:31:16;100949.31;;;8.45;92.31
58967;BME280;44744;51.894;5.080;2022-12-24T04:32:16;100949.98;;;8.46;92.37
58967;BME280;44744;51.894;5.080;2022-12-24T04:33:16;100951.38;;;8.46;92.37
58967;BME280;44744;51.894;5.080;2022-12-24T04:34:16;100953.45;;;8.47;92.40
58967;BME280;44744;51.894;5.080;2022-12-24T04:35:16;100954.83;;;8.48;92.38
58967;BME280;44744;51.894;5.080;2022-12-24T04:36:17;100954.98;;;8.48;92.48
58967;BME280;44744;51.894;5.080;2022-12-24T04:37:17;100959.17;;;8.49;92.47
58967;BME280;44744;51.894;5.080;2022-12-24T04:38:17;100958.41;;;8.50;92.46
58967;BME280;44744;51.894;5.080;2022-12-24T04:39:18;100957.32;;;8.51;92.49
58967;BME280;44744;51.894;5.080;2022-12-24T04:40:18;100958.17;;;8.51;92.43
58967;BME280;44744;51.894;5.080;2022-12-24T04:41:19;100957.45;;;8.52;92.46
58967;BME280;44744;51.894;5.080;2022-12-24T04:42:19;100959.38;;;8.52;92.43
58967;BME280;44744;51.894;5.080;2022-12-24T04:43:20;100963.41;;;8.53;92.54
58967;BME280;44744;51.894;5.080;2022-12-24T04:44:20;100964.08;;;8.54;92.53
58967;BME280;44744;51.894;5.080;2022-12-24T04:45:20;100964.23;;;8.54;92.49
58967;BME280;44744;51.894;5.080;2022-12-24T04:46:21;100966.50;;;8.55;92.51
58967;BME280;44744;51.894;5.080;2022-12-24T04:47:22;100965.95;;;8.56;92.53
58967;BME280;44744;51.894;5.080;2022-12-24T04:48:22;100960.11;;;8.56;92.57
58967;BME280;44744;51.894;5.080;2022-12-24T04:49:22;100962.17;;;8.57;92.57
58967;BME280;44744;51.894;5.080;2022-12-24T04:50:22;100960.73;;;8.58;92.53
58967;BME280;44744;51.894;5.080;2022-12-24T04:51:24;100962.30;;;8.58;92.65
58967;BME280;44744;51.894;5.080;2022-12-24T04:52:24;100963.30;;;8.59;92.62
58967;BME280;44744;51.894;5.080;2022-12-24T04:53:24;100961.34;;;8.60;92.61
58967;BME280;44744;51.894;5.080;2022-12-24T04:54:25;100964.15;;;8.60;92.66
58967;BME280;44744;51.894;5.080;2022-12-24T04:55:25;100963.04;;;8.62;92.70
58967;BME280;44744;51.894;5.080;2022-12-24T04:56:26;100963.88;;;8.62;92.74
58967;BME280;44744;51.894;5.080;2022-12-24T04:57:27;100962.09;;;8.63;92.78
58967;BME280;44744;51.894;5.080;2022-12-24T04:58:27;100962.77;;;8.63;92.68
58967;BME280;44744;51.894;5.080;2022-12-24T04:59:27;100965.67;;;8.65;92.73
58967;BME280;44744;51.894;5.080;2022-12-24T05:00:27;100964.11;;;8.65;92.74
58967;BME280;44744;51.894;5.080;2022-12-24T05:01:29;100969.72;;;8.66;92.80
58967;BME280;44744;51.894;5.080;2022-12-24T05:02:29;100973.59;;;8.66;92.79
58967;BME280;44744;51.894;5.080;2022-12-24T05:03:29;100974.99;;;8.66;92.82
58967;BME280;44744;51.894;5.080;2022-12-24T05:04:30;100973.91;;;8.66;92.78
58967;BME280;44744;51.894;5.080;2022-12-24T05:05:30;100974.42;;;8.67;92.83
58967;BME280;44744;51.894;5.080;2022-12-24T05:06:30;100968.60;;;8.67;92.76
58967;BME280;44744;51.894;5.080;2022-12-24T05:07:32;100967.17;;;8.67;92.82
58967;BME280;44744;51.894;5.080;2022-12-24T05:08:33;100965.73;;;8.68;92.85
58967;BME280;44744;51.894;5.080;2022-12-24T05:09:36;100966.05;;;8.69;92.85
58967;BME280;44744;51.894;5.080;2022-12-24T05:10:36;100964.46;;;8.69;92.97
58967;BME280;44744;51.894;5.080;2022-12-24T05:11:36;100965.15;;;8.69;92.89
58967;BME280;44744;51.894;5.080;2022-12-24T05:12:36;100966.20;;;8.70;92.93
58967;BME280;44744;51.894;5.080;2022-12-24T05:13:37;100964.43;;;8.70;92.91
58967;BME280;44744;51.894;5.080;2022-12-24T05:14:37;100967.77;;;8.70;92.96
58967;BME280;44744;51.894;5.080;2022-12-24T05:15:38;100968.79;;;8.70;92.98
58967;BME280;44744;51.894;5.080;2022-12-24T05:16:38;100971.42;;;8.71;92.93
58967;BME280;44744;51.894;5.080;2022-12-24T05:17:38;100969.48;;;8.71;92.91
58967;BME280;44744;51.894;5.080;2022-12-24T05:19:43;100978.59;;;8.73;92.95
58967;BME280;44744;51.894;5.080;2022-12-24T05:20:43;100980.89;;;8.72;93.01
58967;BME280;44744;51.894;5.080;2022-12-24T05:21:43;100976.10;;;8.73;92.96
58967;BME280;44744;51.894;5.080;2022-12-24T05:22:49;100975.40;;;8.73;92.90
58967;BME280;44744;51.894;5.080;2022-12-24T05:23:50;100976.08;;;8.73;92.93
58967;BME280;44744;51.894;5.080;2022-12-24T05:24:53;100979.23;;;8.74;93.01
58967;BME280;44744;51.894;5.080;2022-12-24T05:25:53;100978.87;;;8.74;93.10
58967;BME280;44744;51.894;5.080;2022-12-24T05:26:54;100981.98;;;8.75;93.14
58967;BME280;44744;51.894;5.080;2022-12-24T05:27:57;100979.54;;;8.75;93.05
58967;BME280;44744;51.894;5.080;2022-12-24T05:28:58;100978.79;;;8.76;93.12
58967;BME280;44744;51.894;5.080;2022-12-24T05:29:58;100976.83;;;8.76;93.05
58967;BME280;44744;51.894;5.080;2022-12-24T05:30:58;100979.65;;;8.76;92.98
58967;BME280;44744;51.894;5.080;2022-12-24T05:31:58;100977.88;;;8.77;93.10
58967;BME280;44744;51.894;5.080;2022-12-24T05:32:59;100979.42;;;8.77;93.04
58967;BME280;44744;51.894;5.080;2022-12-24T05:33:59;100974.13;;;8.78;93.06
58967;BME280;44744;51.894;5.080;2022-12-24T05:35:00;100973.92;;;8.78;93.03
58967;BME280;44744;51.894;5.080;2022-12-24T05:36:00;100966.89;;;8.78;93.05
58967;BME280;44744;51.894;5.080;2022-12-24T05:37:00;100970.20;;;8.79;93.05
58967;BME280;44744;51.894;5.080;2022-12-24T05:38:00;100970.02;;;8.79;92.99
58967;BME280;44744;51.894;5.080;2022-12-24T05:39:01;100972.48;;;8.79;92.98
58967;BME280;44744;51.894;5.080;2022-12-24T05:40:01;100972.29;;;8.79;93.02
58967;BME280;44744;51.894;5.080;2022-12-24T05:41:19;100968.61;;;8.79;93.07
58967;BME280;44744;51.894;5.080;2022-12-24T05:42:22;100968.23;;;8.79;92.92
58967;BME280;44744;51.894;5.080;2022-12-24T05:43:22;100966.62;;;8.80;92.97
58967;BME280;44744;51.894;5.080;2022-12-24T05:44:22;100969.12;;;8.79;92.98
58967;BME280;44744;51.894;5.080;2022-12-24T05:45:22;100975.08;;;8.80;92.94
58967;BME280;44744;51.894;5.080;2022-12-24T05:46:23;100975.97;;;8.80;92.91
58967;BME280;44744;51.894;5.080;2022-12-24T05:47:27;100981.23;;;8.80;92.92
58967;BME280;44744;51.894;5.080;2022-12-24T05:48:27;100980.71;;;8.80;92.97
58967;BME280;44744;51.894;5.080;2022-12-24T05:49:27;100975.95;;;8.80;92.91
58967;BME280;44744;51.894;5.080;2022-12-24T05:50:28;100976.84;;;8.80;92.89
58967;BME280;44744;51.894;5.080;2022-12-24T05:51:28;100977.55;;;8.80;92.92
58967;BME280;44744;51.894;5.080;2022-12-24T05:52:35;100976.86;;;8.79;92.88
58967;BME280;44744;51.894;5.080;2022-12-24T05:53:42;100980.45;;;8.78;92.92
58967;BME280;44744;51.894;5.080;2022-12-24T05:56:06;100989.95;;;8.79;92.92
58967;BME280;44744;51.894;5.080;2022-12-24T05:57:07;100995.27;;;8.78;92.77
58967;BME280;44744;51.894;5.080;2022-12-24T05:58:28;100996.86;;;8.78;92.92
58967;BME280;44744;51.894;5.080;2022-12-24T05:59:27;100999.27;;;8.79;92.96
58967;BME280;44744;51.894;5.080;2022-12-24T06:00:27;101001.59;;;8.79;93.06
58967;BME280;44744;51.894;5.080;2022-12-24T06:01:30;100998.77;;;8.79;93.03
58967;BME280;44744;51.894;5.080;2022-12-24T06:02:30;100998.70;;;8.80;93.02
58967;BME280;44744;51.894;5.080;2022-12-24T06:03:36;100997.95;;;8.81;93.08
58967;BME280;44744;51.894;5.080;2022-12-24T06:04:36;100998.28;;;8.82;93.15